Laguna de Pozuelos, Argentina
Current Conditions -  °F | °C
As of 11:00 AM on Thursday 27 Nov 2014 (Local Time) from SLTJ Reporting Station
Broken Clouds Broken Clouds  
Wind Chill: 70°   Ceiling: 20000
Heat Index: 70°   Visibility: 6mi
Dew Point: 57°   Wind: 0mph
Humidity: 64%   Direction: NA
Pressure: 30.21"   Gusts: NA
Location:  22.37°S, 66.02°W
Report Text: SLTJ 271400Z 00000KT 9999 FEW030 FEW033TCU SCT070 BKN200 21/14 Q1023
Loading
Personal Weather Stations






























Interactive Weather Map New forecast layout! Learn more

10-Day Weather Forecast

Advertisements
Track Severe Weather on mobile